createdAt,value
2018-03-27T00:01:35.086Z,26.30
2018-03-27T00:04:03.874Z,26.07
2018-03-27T00:06:32.691Z,26.87
2018-03-27T00:09:01.492Z,24.97
2018-03-27T00:11:30.299Z,24.83
2018-03-27T00:13:59.115Z,24.33
2018-03-27T00:16:28.022Z,24.17
2018-03-27T00:18:56.911Z,23.50
2018-03-27T00:21:26.040Z,23.60
2018-03-27T00:23:54.846Z,21.57
2018-03-27T00:26:23.640Z,22.83
2018-03-27T00:28:58.403Z,22.27
2018-03-27T00:31:33.096Z,21.03
2018-03-27T00:34:07.843Z,21.43
2018-03-27T00:36:42.549Z,20.20
2018-03-27T00:39:17.195Z,21.27
2018-03-27T00:42:01.594Z,20.50
2018-03-27T00:44:30.389Z,20.63
2018-03-27T00:46:59.266Z,21.50
2018-03-27T00:49:28.059Z,21.17
2018-03-27T00:51:56.878Z,21.43
2018-03-27T00:54:25.747Z,22.10
2018-03-27T00:56:54.542Z,22.90
2018-03-27T00:59:23.362Z,20.93
2018-03-27T01:01:52.173Z,20.73
2018-03-27T01:04:21.023Z,22.43
2018-03-27T01:06:49.819Z,21.23
2018-03-27T01:09:18.631Z,21.70
2018-03-27T01:11:47.451Z,20.33
2018-03-27T01:14:16.238Z,22.20
2018-03-27T01:16:45.086Z,20.63
2018-03-27T01:19:13.907Z,19.97
2018-03-27T01:21:42.788Z,21.23
2018-03-27T01:24:11.605Z,22.00
2018-03-27T01:26:40.476Z,20.80
2018-03-27T01:29:09.363Z,22.03
2018-03-27T01:31:38.182Z,21.83
2018-03-27T01:34:06.970Z,20.63
2018-03-27T01:36:35.843Z,21.73
2018-03-27T01:39:05.651Z,20.10
2018-03-27T01:41:34.442Z,21.73
2018-03-27T01:44:03.266Z,20.63
2018-03-27T01:46:32.084Z,20.87
2018-03-27T01:49:00.926Z,21.03
2018-03-27T01:51:29.735Z,21.63
2018-03-27T01:53:58.618Z,20.67
2018-03-27T01:56:27.438Z,20.33
2018-03-27T01:58:56.306Z,20.07
2018-03-27T02:01:25.103Z,21.20
2018-03-27T02:03:53.994Z,20.77
2018-03-27T02:06:22.822Z,21.27
2018-03-27T02:08:51.622Z,21.17
2018-03-27T02:11:26.398Z,20.30
2018-03-27T02:14:00.905Z,20.07
2018-03-27T02:16:35.539Z,20.23
2018-03-27T02:19:10.274Z,18.87
2018-03-27T02:21:38.838Z,20.50
2018-03-27T02:24:08.562Z,20.87
2018-03-27T02:26:37.382Z,19.70
2018-03-27T02:29:06.286Z,19.73
2018-03-27T02:31:35.100Z,20.67
2018-03-27T02:34:03.970Z,20.90
2018-03-27T02:36:32.792Z,20.93
2018-03-27T02:39:01.657Z,19.77
2018-03-27T02:41:31.195Z,21.70
2018-03-27T02:44:00.072Z,20.17
2018-03-27T02:46:28.889Z,19.30
2018-03-27T02:48:58.191Z,19.87
2018-03-27T02:51:27.011Z,22.33
2018-03-27T02:53:55.805Z,20.63
2018-03-27T02:56:24.618Z,20.90
2018-03-27T02:58:53.418Z,21.27
2018-03-27T03:01:22.236Z,20.03
2018-03-27T03:03:51.060Z,20.57
2018-03-27T03:06:19.875Z,20.27
2018-03-27T03:08:48.678Z,18.70
2018-03-27T03:11:17.495Z,19.63
2018-03-27T03:13:46.287Z,20.67
2018-03-27T03:16:15.100Z,20.30
2018-03-27T03:18:43.987Z,20.27
2018-03-27T03:21:12.783Z,19.50
2018-03-27T03:23:41.578Z,19.53
2018-03-27T03:26:10.391Z,18.70
2018-03-27T03:28:39.191Z,19.50
2018-03-27T03:31:08.016Z,19.53
2018-03-27T03:33:36.814Z,19.17
2018-03-27T03:36:05.631Z,17.77
2018-03-27T03:38:34.522Z,19.50
2018-03-27T03:41:03.330Z,18.47
2018-03-27T03:43:32.211Z,18.60
2018-03-27T03:46:01.002Z,18.50
2018-03-27T03:48:29.818Z,17.77
2018-03-27T03:50:58.611Z,18.17
2018-03-27T03:53:27.410Z,18.43
2018-03-27T03:55:56.919Z,18.63
2018-03-27T03:58:25.713Z,18.10
2018-03-27T04:00:54.527Z,17.83
2018-03-27T04:03:23.323Z,18.20
2018-03-27T04:05:52.276Z,18.37
2018-03-27T04:08:21.086Z,18.73
2018-03-27T04:10:49.908Z,18.67
2018-03-27T04:13:18.712Z,19.37
2018-03-27T04:15:47.511Z,18.60
2018-03-27T04:18:16.452Z,18.33
2018-03-27T04:20:45.251Z,18.63
2018-03-27T04:23:14.063Z,18.83
2018-03-27T04:25:42.855Z,18.37
2018-03-27T04:28:11.671Z,17.80
2018-03-27T04:30:40.479Z,18.07
2018-03-27T04:33:09.282Z,17.13
2018-03-27T04:35:38.187Z,18.00
2018-03-27T04:38:07.011Z,18.50
2018-03-27T04:40:36.521Z,18.17
2018-03-27T04:43:05.320Z,18.43
2018-03-27T04:45:34.151Z,17.63
2018-03-27T04:48:02.991Z,17.33
2018-03-27T04:50:31.779Z,18.87
2018-03-27T04:53:00.660Z,18.47
2018-03-27T04:55:29.468Z,20.07
2018-03-27T04:57:58.288Z,19.20
2018-03-27T05:00:27.107Z,18.73
2018-03-27T05:02:55.936Z,20.70
2018-03-27T05:05:24.752Z,20.00
2018-03-27T05:07:53.567Z,19.57
2018-03-27T05:10:22.385Z,19.23
2018-03-27T05:12:51.182Z,18.93
2018-03-27T05:15:20.006Z,19.23
2018-03-27T05:17:48.919Z,20.03
2018-03-27T05:20:17.735Z,19.57
2018-03-27T05:22:46.644Z,20.70
2018-03-27T05:25:15.491Z,20.53
2018-03-27T05:27:44.283Z,20.53
2018-03-27T05:30:13.099Z,22.30
2018-03-27T05:32:41.911Z,20.47
2018-03-27T05:35:10.750Z,20.67
2018-03-27T05:37:39.559Z,19.73
2018-03-27T05:40:08.350Z,18.60
2018-03-27T05:42:37.163Z,18.63
2018-03-27T05:45:05.962Z,20.57
2018-03-27T05:47:34.819Z,21.03
2018-03-27T05:50:03.610Z,21.83
2018-03-27T05:52:32.431Z,19.77
2018-03-27T05:55:01.231Z,19.23
2018-03-27T05:57:30.029Z,19.63
2018-03-27T05:59:58.831Z,20.77
2018-03-27T06:02:27.657Z,20.10
2018-03-27T06:04:56.451Z,19.60
2018-03-27T06:07:25.291Z,20.83
2018-03-27T06:09:54.099Z,21.27
2018-03-27T06:12:22.895Z,22.27
2018-03-27T06:14:51.710Z,21.30
2018-03-27T06:17:20.547Z,21.97
2018-03-27T06:19:49.363Z,21.27
2018-03-27T06:22:18.227Z,21.67
2018-03-27T06:24:47.019Z,21.80
2018-03-27T06:27:15.926Z,20.83
2018-03-27T06:29:44.902Z,22.30
2018-03-27T06:32:13.715Z,22.40
2018-03-27T06:34:42.602Z,22.40
2018-03-27T06:37:11.728Z,21.53
2018-03-27T06:39:40.568Z,21.47
2018-03-27T06:42:09.561Z,22.73
2018-03-27T06:44:38.298Z,22.67
2018-03-27T06:47:07.109Z,22.20
2018-03-27T06:49:35.929Z,22.73
2018-03-27T06:52:04.723Z,23.80
2018-03-27T06:54:33.526Z,22.90
2018-03-27T06:57:02.334Z,22.53
2018-03-27T06:59:31.163Z,22.03
2018-03-27T07:01:59.963Z,22.13
2018-03-27T07:04:28.756Z,25.77
2018-03-27T07:06:57.568Z,26.20
2018-03-27T07:09:26.382Z,24.53
2018-03-27T07:11:55.200Z,23.83
2018-03-27T07:14:24.022Z,22.80
2018-03-27T07:16:52.803Z,23.10
2018-03-27T07:19:21.603Z,23.70
2018-03-27T07:21:50.484Z,23.93
2018-03-27T07:24:19.284Z,21.93
2018-03-27T07:26:48.094Z,21.50
2018-03-27T07:29:16.937Z,21.57
2018-03-27T07:31:45.783Z,20.73
2018-03-27T07:34:14.570Z,20.77
2018-03-27T07:36:43.391Z,21.00
2018-03-27T07:39:12.210Z,22.53
2018-03-27T07:41:41.042Z,28.97
2018-03-27T07:44:09.831Z,23.47
2018-03-27T07:46:38.714Z,21.30
2018-03-27T07:49:07.548Z,20.90
2018-03-27T07:51:36.343Z,20.97
2018-03-27T07:54:05.200Z,20.83
2018-03-27T07:56:34.011Z,21.87
2018-03-27T07:59:02.889Z,21.33
2018-03-27T08:01:31.704Z,20.00
2018-03-27T08:04:00.532Z,19.93
2018-03-27T08:06:29.467Z,18.23
2018-03-27T08:08:58.259Z,18.90
2018-03-27T08:11:27.156Z,18.80
2018-03-27T08:13:55.971Z,18.27
2018-03-27T08:16:24.766Z,18.43
2018-03-27T08:18:53.582Z,18.70
2018-03-27T08:21:22.376Z,17.70
2018-03-27T08:23:51.195Z,17.30
2018-03-27T08:26:20.810Z,19.27
2018-03-27T08:28:49.643Z,18.80
2018-03-27T08:31:18.584Z,19.33
2018-03-27T08:33:47.362Z,18.40
2018-03-27T08:36:16.588Z,17.97
2018-03-27T08:38:45.407Z,16.73
2018-03-27T08:41:14.199Z,17.00
2018-03-27T08:43:43.094Z,18.17
2018-03-27T08:46:11.906Z,18.20
2018-03-27T08:48:40.723Z,18.57
2018-03-27T08:51:09.541Z,20.10
2018-03-27T08:53:38.335Z,20.40
2018-03-27T08:56:07.898Z,19.80
2018-03-27T08:58:36.774Z,18.67
2018-03-27T09:01:05.587Z,20.00
2018-03-27T09:03:34.462Z,18.37
2018-03-27T09:06:03.286Z,19.27
2018-03-27T09:08:32.079Z,17.67
2018-03-27T09:11:00.890Z,16.93
2018-03-27T09:13:29.682Z,18.00
2018-03-27T09:15:58.504Z,18.33
2018-03-27T09:18:27.303Z,18.30
2018-03-27T09:20:56.112Z,16.83
2018-03-27T09:23:24.928Z,17.37
2018-03-27T09:25:53.802Z,18.00
2018-03-27T09:28:22.694Z,17.67
2018-03-27T09:30:51.591Z,17.03
2018-03-27T09:33:20.453Z,16.40
2018-03-27T09:35:49.243Z,16.57
2018-03-27T09:38:18.056Z,17.00
2018-03-27T09:40:46.866Z,16.87
2018-03-27T09:43:15.685Z,14.30
2018-03-27T09:45:44.479Z,14.50
2018-03-27T09:48:13.295Z,15.03
2018-03-27T09:50:42.112Z,15.93
2018-03-27T09:53:10.959Z,15.43
2018-03-27T09:55:39.827Z,15.10
2018-03-27T09:58:08.633Z,15.97
2018-03-27T10:00:43.347Z,15.27
2018-03-27T10:03:12.145Z,16.47
2018-03-27T10:05:40.960Z,15.33
2018-03-27T10:08:09.749Z,14.63
2018-03-27T10:10:38.568Z,13.23
2018-03-27T10:13:07.450Z,15.40
2018-03-27T10:15:36.312Z,15.10
2018-03-27T10:18:05.098Z,14.37
2018-03-27T10:20:33.920Z,13.13
2018-03-27T10:23:02.893Z,12.17
2018-03-27T10:25:31.713Z,13.40
2018-03-27T10:28:00.530Z,14.43
2018-03-27T10:30:29.335Z,13.17
2018-03-27T10:32:58.148Z,12.90
2018-03-27T10:35:26.956Z,11.93
2018-03-27T10:37:55.956Z,12.43
2018-03-27T10:40:24.775Z,10.47
2018-03-27T10:42:53.596Z,10.83
2018-03-27T10:45:22.459Z,10.23
2018-03-27T10:47:51.191Z,11.23
2018-03-27T10:50:20.019Z,10.90
2018-03-27T10:52:48.814Z,10.83
2018-03-27T10:55:17.617Z,11.77
2018-03-27T10:57:46.468Z,11.60
2018-03-27T11:00:15.272Z,12.03
2018-03-27T11:02:44.062Z,12.00
2018-03-27T11:05:12.882Z,11.67
2018-03-27T11:07:41.691Z,12.30
2018-03-27T11:10:10.583Z,11.63
2018-03-27T11:12:39.377Z,12.87
2018-03-27T11:15:08.255Z,12.00
2018-03-27T11:17:37.076Z,10.33
2018-03-27T11:20:05.870Z,10.63
2018-03-27T11:22:34.742Z,9.87
2018-03-27T11:25:03.527Z,10.97
2018-03-27T11:27:32.351Z,10.73
2018-03-27T11:30:01.139Z,9.93
2018-03-27T11:32:30.015Z,10.23
2018-03-27T11:34:58.807Z,9.70
2018-03-27T11:37:27.624Z,9.53
2018-03-27T11:39:56.490Z,9.57
2018-03-27T11:42:25.288Z,8.67
2018-03-27T11:44:54.095Z,8.47
2018-03-27T11:47:22.894Z,9.17
2018-03-27T11:49:51.713Z,8.27
2018-03-27T11:52:20.504Z,8.67
2018-03-27T11:54:49.290Z,8.30
2018-03-27T11:57:18.243Z,7.77
2018-03-27T11:59:47.031Z,7.33
2018-03-27T12:02:15.814Z,7.23
2018-03-27T12:04:44.610Z,6.63
2018-03-27T12:07:13.518Z,7.23
2018-03-27T12:09:42.414Z,7.73
2018-03-27T12:12:11.219Z,6.87
2018-03-27T12:14:40.103Z,7.67
2018-03-27T12:17:08.996Z,7.43
2018-03-27T12:19:37.774Z,7.53
2018-03-27T12:22:06.683Z,7.63
2018-03-27T12:24:35.506Z,7.50
2018-03-27T12:27:04.388Z,7.40
2018-03-27T12:29:33.575Z,6.97
2018-03-27T12:32:02.388Z,7.00
2018-03-27T12:34:31.203Z,8.10
2018-03-27T12:36:59.997Z,7.13
2018-03-27T12:39:28.811Z,6.77
2018-03-27T12:41:57.605Z,7.13
2018-03-27T12:44:27.280Z,7.27
2018-03-27T12:46:56.063Z,7.80
2018-03-27T12:49:24.878Z,7.07
2018-03-27T12:51:53.660Z,7.33
2018-03-27T12:54:22.527Z,7.23
2018-03-27T12:56:51.423Z,6.97
2018-03-27T12:59:20.315Z,7.17
2018-03-27T13:01:49.131Z,7.33
2018-03-27T13:04:17.919Z,7.37
2018-03-27T13:06:46.727Z,8.20
2018-03-27T13:09:15.590Z,7.07
2018-03-27T13:11:44.411Z,6.97
2018-03-27T13:14:13.192Z,7.27
2018-03-27T13:16:41.988Z,7.77
2018-03-27T13:19:11.095Z,7.63
2018-03-27T13:21:39.899Z,6.77
2018-03-27T13:24:08.766Z,6.57
2018-03-27T13:26:37.579Z,6.93
2018-03-27T13:29:06.383Z,5.93
2018-03-27T13:31:35.251Z,6.50
2018-03-27T13:34:04.136Z,6.17
2018-03-27T13:36:32.951Z,7.37
2018-03-27T13:39:01.757Z,7.50
2018-03-27T13:41:30.611Z,7.10
2018-03-27T13:43:59.422Z,6.63
2018-03-27T13:46:28.247Z,6.77
2018-03-27T13:48:57.042Z,6.90
2018-03-27T13:51:26.335Z,7.37
2018-03-27T13:53:55.505Z,5.87
2018-03-27T13:56:24.278Z,6.00
2018-03-27T13:58:53.074Z,6.53
2018-03-27T14:01:21.908Z,6.80
2018-03-27T14:03:50.774Z,6.57
2018-03-27T14:06:19.591Z,6.67
2018-03-27T14:08:48.472Z,7.07
2018-03-27T14:11:17.351Z,6.40
2018-03-27T14:13:46.147Z,6.20
2018-03-27T14:16:14.955Z,6.47
2018-03-27T14:18:43.838Z,6.80
2018-03-27T14:21:12.632Z,6.67
2018-03-27T14:23:41.451Z,6.30
2018-03-27T14:26:10.240Z,7.07
2018-03-27T14:28:39.047Z,6.93
2018-03-27T14:31:07.863Z,7.40
2018-03-27T14:33:36.673Z,6.90
2018-03-27T14:36:05.480Z,6.77
2018-03-27T14:38:34.271Z,6.83
2018-03-27T14:41:03.082Z,7.03
2018-03-27T14:43:31.862Z,7.10
2018-03-27T14:46:00.674Z,7.03
2018-03-27T14:48:29.465Z,7.90
2018-03-27T14:50:58.273Z,7.00
2018-03-27T14:53:27.082Z,7.13
2018-03-27T14:55:55.871Z,7.67
2018-03-27T14:58:24.662Z,7.57
2018-03-27T15:00:53.479Z,7.23
2018-03-27T15:03:22.311Z,6.70
2018-03-27T15:05:51.224Z,7.50
2018-03-27T15:08:20.038Z,6.77
2018-03-27T15:10:48.896Z,7.53
2018-03-27T15:13:17.676Z,7.90
2018-03-27T15:15:46.504Z,7.17
2018-03-27T15:18:15.319Z,7.20
2018-03-27T15:20:44.162Z,6.80
2018-03-27T15:23:12.959Z,6.93
2018-03-27T15:25:41.856Z,6.90
2018-03-27T15:28:10.661Z,7.63
2018-03-27T15:30:39.454Z,6.87
2018-03-27T15:33:08.247Z,7.40
2018-03-27T15:35:37.057Z,6.87
2018-03-27T15:38:05.866Z,7.77
2018-03-27T15:40:34.676Z,7.30
2018-03-27T15:43:03.506Z,7.30
2018-03-27T15:45:32.313Z,8.40
2018-03-27T15:48:01.194Z,8.43
2018-03-27T15:50:30.092Z,8.33
2018-03-27T15:52:58.880Z,9.30
2018-03-27T15:55:27.779Z,9.50
2018-03-27T15:57:56.676Z,9.53
2018-03-27T16:00:25.494Z,9.20
2018-03-27T16:02:54.299Z,8.87
2018-03-27T16:05:23.114Z,8.87
2018-03-27T16:07:51.956Z,14.40
2018-03-27T16:10:20.768Z,16.37
2018-03-27T16:12:49.586Z,12.17
2018-03-27T16:15:18.388Z,10.77
2018-03-27T16:17:47.207Z,9.00
2018-03-27T16:20:16.014Z,10.13
2018-03-27T16:22:44.947Z,12.57
2018-03-27T16:25:13.755Z,11.30
2018-03-27T16:27:42.612Z,11.53
2018-03-27T16:30:11.426Z,10.00
2018-03-27T16:32:40.226Z,8.47
2018-03-27T16:35:09.048Z,8.70
2018-03-27T16:37:37.842Z,7.70
2018-03-27T16:40:06.655Z,8.20
2018-03-27T16:42:35.451Z,8.23
2018-03-27T16:45:04.260Z,9.10
2018-03-27T16:47:33.048Z,8.00
2018-03-27T16:50:01.859Z,7.63
2018-03-27T16:52:30.663Z,8.47
2018-03-27T16:54:59.483Z,8.87
2018-03-27T16:57:28.290Z,8.10
2018-03-27T16:59:57.094Z,8.67
2018-03-27T17:02:25.889Z,10.63
2018-03-27T17:04:54.753Z,10.00
2018-03-27T17:07:23.534Z,9.73
2018-03-27T17:09:52.331Z,9.13
2018-03-27T17:12:21.150Z,9.03
2018-03-27T17:14:49.967Z,8.87
2018-03-27T17:17:18.764Z,9.53
2018-03-27T17:19:47.552Z,9.23
2018-03-27T17:22:16.371Z,8.60
2018-03-27T17:24:45.179Z,10.00
2018-03-27T17:27:13.984Z,9.53
2018-03-27T17:29:42.803Z,9.17
2018-03-27T17:32:11.619Z,10.27
2018-03-27T17:34:40.473Z,10.17
2018-03-27T17:37:09.292Z,10.97
2018-03-27T17:39:38.203Z,9.50
2018-03-27T17:42:07.034Z,9.50
2018-03-27T17:44:35.831Z,9.87
2018-03-27T17:47:04.626Z,9.00
2018-03-27T17:49:33.434Z,9.37
2018-03-27T17:52:02.268Z,9.90
2018-03-27T17:54:31.082Z,10.07
2018-03-27T17:56:59.916Z,9.27
2018-03-27T17:59:28.715Z,9.67
2018-03-27T18:01:57.539Z,10.27
2018-03-27T18:04:26.350Z,9.53
2018-03-27T18:06:55.236Z,10.30
2018-03-27T18:09:24.033Z,10.17
2018-03-27T18:11:52.919Z,10.47
2018-03-27T18:14:21.727Z,9.70
2018-03-27T18:16:50.539Z,10.67
2018-03-27T18:19:19.371Z,11.13
2018-03-27T18:21:48.203Z,11.13
2018-03-27T18:24:16.995Z,10.93
2018-03-27T18:26:45.900Z,11.97
2018-03-27T18:29:15.843Z,12.57
2018-03-27T18:31:44.790Z,12.47
2018-03-27T18:34:13.605Z,12.30
2018-03-27T18:36:42.407Z,12.27
2018-03-27T18:39:11.211Z,11.83
2018-03-27T18:41:40.032Z,12.03
2018-03-27T18:44:08.827Z,11.23
2018-03-27T18:46:37.754Z,11.33
2018-03-27T18:49:06.551Z,11.70
2018-03-27T18:51:35.367Z,11.67
2018-03-27T18:54:04.173Z,11.83
2018-03-27T18:56:32.991Z,12.33
2018-03-27T18:59:01.848Z,20.10
2018-03-27T19:01:30.692Z,22.90
2018-03-27T19:03:59.510Z,14.30
2018-03-27T19:06:28.323Z,13.07
2018-03-27T19:08:57.210Z,11.67
2018-03-27T19:11:26.026Z,12.13
2018-03-27T19:13:54.923Z,11.87
2018-03-27T19:16:23.795Z,11.53
2018-03-27T19:18:52.691Z,11.50
2018-03-27T19:21:21.495Z,10.90
2018-03-27T19:23:50.363Z,10.40
2018-03-27T19:26:19.160Z,10.07
2018-03-27T19:28:47.977Z,10.37
2018-03-27T19:31:16.848Z,10.97
2018-03-27T19:33:45.718Z,12.03
2018-03-27T19:36:14.546Z,12.13
2018-03-27T19:38:43.444Z,12.00
2018-03-27T19:41:12.372Z,11.27
2018-03-27T19:43:41.151Z,13.33
2018-03-27T19:46:09.975Z,11.63
2018-03-27T19:48:38.802Z,11.57
2018-03-27T19:51:07.635Z,11.90
2018-03-27T19:53:36.447Z,12.47
2018-03-27T19:56:05.244Z,12.03
2018-03-27T19:58:34.063Z,11.80
2018-03-27T20:01:02.979Z,12.57
2018-03-27T20:03:31.829Z,11.83
2018-03-27T20:06:00.671Z,13.03
2018-03-27T20:08:29.480Z,12.37
2018-03-27T20:10:58.288Z,12.37
2018-03-27T20:13:27.151Z,12.20
2018-03-27T20:15:55.948Z,13.33
2018-03-27T20:18:24.831Z,12.97
2018-03-27T20:20:53.722Z,12.87
2018-03-27T20:23:22.618Z,13.03
2018-03-27T20:25:51.492Z,12.93
2018-03-27T20:28:20.324Z,13.80
2018-03-27T20:30:49.110Z,12.73
2018-03-27T20:33:17.928Z,12.53
2018-03-27T20:35:46.751Z,12.87
2018-03-27T20:38:15.648Z,13.90
2018-03-27T20:40:44.454Z,14.13
2018-03-27T20:43:13.290Z,12.93
2018-03-27T20:45:42.087Z,13.20
2018-03-27T20:48:10.890Z,12.80
2018-03-27T20:50:39.750Z,13.43
2018-03-27T20:53:08.543Z,13.90
2018-03-27T20:55:37.439Z,14.43
2018-03-27T20:58:06.255Z,14.43
2018-03-27T21:00:35.132Z,13.17
2018-03-27T21:03:03.914Z,13.30
2018-03-27T21:05:32.762Z,13.40
2018-03-27T21:08:01.547Z,12.63
2018-03-27T21:10:30.398Z,13.00
2018-03-27T21:12:59.291Z,12.07
2018-03-27T21:15:28.111Z,12.00
2018-03-27T21:17:56.979Z,12.03
2018-03-27T21:20:25.852Z,13.90
2018-03-27T21:22:54.680Z,13.17
2018-03-27T21:25:23.475Z,13.07
2018-03-27T21:27:52.292Z,13.10
2018-03-27T21:30:21.113Z,11.07
2018-03-27T21:32:49.909Z,10.73
2018-03-27T21:35:18.714Z,11.80
2018-03-27T21:37:47.798Z,11.17
2018-03-27T21:40:16.610Z,10.53
2018-03-27T21:42:45.589Z,10.77
2018-03-27T21:45:14.532Z,11.27
2018-03-27T21:47:43.338Z,10.07
2018-03-27T21:50:12.294Z,11.13
2018-03-27T21:52:41.100Z,10.57
2018-03-27T21:55:09.959Z,10.90
2018-03-27T21:57:38.831Z,10.83
2018-03-27T22:00:07.688Z,10.10
2018-03-27T22:02:36.749Z,10.77
2018-03-27T22:05:05.526Z,10.70
2018-03-27T22:07:34.350Z,10.53
2018-03-27T22:10:03.176Z,10.93
2018-03-27T22:12:31.975Z,10.83
2018-03-27T22:15:00.787Z,10.87
2018-03-27T22:17:29.593Z,9.87
2018-03-27T22:19:58.488Z,9.83
2018-03-27T22:22:27.337Z,11.20
2018-03-27T22:24:56.169Z,10.87
2018-03-27T22:27:24.957Z,11.30
2018-03-27T22:29:53.821Z,10.93
2018-03-27T22:32:22.710Z,10.90
2018-03-27T22:34:51.500Z,10.87
2018-03-27T22:37:20.306Z,9.87
2018-03-27T22:39:49.196Z,10.00
2018-03-27T22:42:17.982Z,9.70
2018-03-27T22:44:46.798Z,10.07
2018-03-27T22:47:15.591Z,9.87
2018-03-27T22:49:44.400Z,9.63
2018-03-27T22:52:13.191Z,9.73
2018-03-27T22:54:42.011Z,8.67
2018-03-27T22:57:10.832Z,9.47
2018-03-27T22:59:39.624Z,9.60
2018-03-27T23:02:08.419Z,10.47
2018-03-27T23:04:37.232Z,10.33
2018-03-27T23:07:06.028Z,9.87
2018-03-27T23:09:34.916Z,9.33
2018-03-27T23:12:03.803Z,10.13
2018-03-27T23:14:32.625Z,10.57
2018-03-27T23:17:01.401Z,9.10
2018-03-27T23:19:30.209Z,9.63
2018-03-27T23:21:59.096Z,9.50
2018-03-27T23:24:27.917Z,10.13
2018-03-27T23:26:56.773Z,9.73
2018-03-27T23:29:25.574Z,10.07
2018-03-27T23:31:54.383Z,9.43
2018-03-27T23:34:23.207Z,9.23
2018-03-27T23:36:51.998Z,9.43
2018-03-27T23:39:20.831Z,9.57
2018-03-27T23:41:49.666Z,8.97
2018-03-27T23:44:18.518Z,10.03
2018-03-27T23:46:47.306Z,9.90
2018-03-27T23:49:16.124Z,9.23
2018-03-27T23:51:45.018Z,9.20
2018-03-27T23:54:13.814Z,9.27
2018-03-27T23:56:42.683Z,9.67
2018-03-27T23:59:11.578Z,7.80
